sensor_id;sensor_type;location;lat;lon;timestamp;P1;durP1;ratioP1;P2;durP2;ratioP2
82479;SDS011;72105;46.112;12.902;2023-09-19T00:01:19;19.40;;;11.80;;
82479;SDS011;72105;46.112;12.902;2023-09-19T00:03:45;20.10;;;11.98;;
82479;SDS011;72105;46.112;12.902;2023-09-19T00:06:12;18.88;;;11.88;;
82479;SDS011;72105;46.112;12.902;2023-09-19T00:08:41;22.00;;;12.30;;
82479;SDS011;72105;46.112;12.902;2023-09-19T00:11:10;18.50;;;12.32;;
82479;SDS011;72105;46.112;12.902;2023-09-19T00:13:36;20.48;;;11.75;;
82479;SDS011;72105;46.112;12.902;2023-09-19T00:16:07;18.95;;;11.43;;
82479;SDS011;72105;46.112;12.902;2023-09-19T00:18:35;18.10;;;11.05;;
82479;SDS011;72105;46.112;12.902;2023-09-19T00:21:01;19.88;;;11.48;;
82479;SDS011;72105;46.112;12.902;2023-09-19T00:23:30;19.70;;;11.93;;
82479;SDS011;72105;46.112;12.902;2023-09-19T00:25:59;19.15;;;11.57;;
82479;SDS011;72105;46.112;12.902;2023-09-19T00:30:51;19.08;;;11.77;;
82479;SDS011;72105;46.112;12.902;2023-09-19T00:33:19;20.55;;;11.57;;
82479;SDS011;72105;46.112;12.902;2023-09-19T00:35:52;16.73;;;10.85;;
82479;SDS011;72105;46.112;12.902;2023-09-19T00:40:47;16.88;;;10.55;;
82479;SDS011;72105;46.112;12.902;2023-09-19T00:43:14;16.73;;;11.43;;
82479;SDS011;72105;46.112;12.902;2023-09-19T00:45:42;18.08;;;11.27;;
82479;SDS011;72105;46.112;12.902;2023-09-19T00:48:09;18.30;;;11.75;;
82479;SDS011;72105;46.112;12.902;2023-09-19T00:50:35;18.27;;;11.43;;
82479;SDS011;72105;46.112;12.902;2023-09-19T00:53:02;19.65;;;11.77;;
82479;SDS011;72105;46.112;12.902;2023-09-19T00:55:33;19.80;;;10.98;;
82479;SDS011;72105;46.112;12.902;2023-09-19T00:57:59;18.10;;;10.80;;
82479;SDS011;72105;46.112;12.902;2023-09-19T01:00:26;17.67;;;11.07;;
82479;SDS011;72105;46.112;12.902;2023-09-19T01:02:52;15.32;;;10.35;;
82479;SDS011;72105;46.112;12.902;2023-09-19T01:05:18;15.02;;;9.32;;
82479;SDS011;72105;46.112;12.902;2023-09-19T01:07:44;13.80;;;9.15;;
82479;SDS011;72105;46.112;12.902;2023-09-19T01:10:11;13.32;;;8.73;;
82479;SDS011;72105;46.112;12.902;2023-09-19T01:12:47;15.93;;;9.23;;
82479;SDS011;72105;46.112;12.902;2023-09-19T01:18:21;15.35;;;9.25;;
82479;SDS011;72105;46.112;12.902;2023-09-19T01:21:33;18.20;;;9.48;;
82479;SDS011;72105;46.112;12.902;2023-09-19T01:26:05;14.10;;;9.07;;
82479;SDS011;72105;46.112;12.902;2023-09-19T01:28:43;17.30;;;9.25;;
82479;SDS011;72105;46.112;12.902;2023-09-19T01:31:12;12.80;;;8.60;;
82479;SDS011;72105;46.112;12.902;2023-09-19T01:36:22;13.52;;;8.40;;
82479;SDS011;72105;46.112;12.902;2023-09-19T01:38:49;14.90;;;9.77;;
82479;SDS011;72105;46.112;12.902;2023-09-19T01:41:17;16.35;;;9.60;;
82479;SDS011;72105;46.112;12.902;2023-09-19T01:43:45;13.27;;;8.63;;
82479;SDS011;72105;46.112;12.902;2023-09-19T01:48:40;13.60;;;8.85;;
82479;SDS011;72105;46.112;12.902;2023-09-19T01:51:11;12.05;;;8.30;;
82479;SDS011;72105;46.112;12.902;2023-09-19T01:59:11;14.00;;;8.60;;
82479;SDS011;72105;46.112;12.902;2023-09-19T02:01:38;17.35;;;9.02;;
82479;SDS011;72105;46.112;12.902;2023-09-19T02:04:05;16.42;;;9.15;;
82479;SDS011;72105;46.112;12.902;2023-09-19T02:06:31;15.98;;;10.18;;
82479;SDS011;72105;46.112;12.902;2023-09-19T02:08:59;16.05;;;9.80;;
82479;SDS011;72105;46.112;12.902;2023-09-19T02:11:25;14.52;;;9.82;;
82479;SDS011;72105;46.112;12.902;2023-09-19T02:13:51;16.13;;;9.40;;
82479;SDS011;72105;46.112;12.902;2023-09-19T02:16:19;16.50;;;10.18;;
82479;SDS011;72105;46.112;12.902;2023-09-19T02:18:47;15.95;;;9.82;;
82479;SDS011;72105;46.112;12.902;2023-09-19T02:21:14;15.93;;;10.00;;
82479;SDS011;72105;46.112;12.902;2023-09-19T02:23:42;16.50;;;9.30;;
82479;SDS011;72105;46.112;12.902;2023-09-19T02:26:08;17.55;;;10.32;;
82479;SDS011;72105;46.112;12.902;2023-09-19T02:28:36;14.77;;;10.40;;
82479;SDS011;72105;46.112;12.902;2023-09-19T02:31:02;17.85;;;10.18;;
82479;SDS011;72105;46.112;12.902;2023-09-19T02:33:30;17.35;;;10.15;;
82479;SDS011;72105;46.112;12.902;2023-09-19T02:35:58;13.23;;;9.02;;
82479;SDS011;72105;46.112;12.902;2023-09-19T02:38:27;12.52;;;8.50;;
82479;SDS011;72105;46.112;12.902;2023-09-19T02:40:54;14.95;;;8.23;;
82479;SDS011;72105;46.112;12.902;2023-09-19T02:43:20;12.18;;;8.13;;
82479;SDS011;72105;46.112;12.902;2023-09-19T02:45:47;10.13;;;7.20;;
82479;SDS011;72105;46.112;12.902;2023-09-19T02:48:15;11.43;;;6.65;;
82479;SDS011;72105;46.112;12.902;2023-09-19T02:50:41;11.98;;;6.85;;
82479;SDS011;72105;46.112;12.902;2023-09-19T02:53:07;11.88;;;7.18;;
82479;SDS011;72105;46.112;12.902;2023-09-19T02:55:35;13.20;;;7.35;;
82479;SDS011;72105;46.112;12.902;2023-09-19T02:58:03;11.55;;;6.35;;
82479;SDS011;72105;46.112;12.902;2023-09-19T03:00:32;12.07;;;6.82;;
82479;SDS011;72105;46.112;12.902;2023-09-19T03:03:01;10.55;;;6.15;;
82479;SDS011;72105;46.112;12.902;2023-09-19T03:05:28;8.65;;;5.80;;
82479;SDS011;72105;46.112;12.902;2023-09-19T03:07:58;8.15;;;5.57;;
82479;SDS011;72105;46.112;12.902;2023-09-19T03:10:26;10.70;;;6.35;;
82479;SDS011;72105;46.112;12.902;2023-09-19T03:15:18;8.63;;;5.20;;
82479;SDS011;72105;46.112;12.902;2023-09-19T03:17:45;7.93;;;4.88;;
82479;SDS011;72105;46.112;12.902;2023-09-19T03:20:12;8.15;;;5.60;;
82479;SDS011;72105;46.112;12.902;2023-09-19T03:22:39;8.82;;;4.97;;
82479;SDS011;72105;46.112;12.902;2023-09-19T03:25:06;6.82;;;4.38;;
82479;SDS011;72105;46.112;12.902;2023-09-19T03:27:39;6.40;;;4.63;;
82479;SDS011;72105;46.112;12.902;2023-09-19T03:30:06;8.93;;;4.97;;
82479;SDS011;72105;46.112;12.902;2023-09-19T03:32:45;9.20;;;5.03;;
82479;SDS011;72105;46.112;12.902;2023-09-19T03:35:11;7.35;;;4.32;;
82479;SDS011;72105;46.112;12.902;2023-09-19T03:37:40;10.85;;;5.32;;
82479;SDS011;72105;46.112;12.902;2023-09-19T03:40:07;7.47;;;5.32;;
82479;SDS011;72105;46.112;12.902;2023-09-19T03:42:33;8.52;;;5.50;;
82479;SDS011;72105;46.112;12.902;2023-09-19T03:45:01;4.97;;;3.95;;
82479;SDS011;72105;46.112;12.902;2023-09-19T03:47:27;7.53;;;4.00;;
82479;SDS011;72105;46.112;12.902;2023-09-19T03:49:53;5.57;;;3.40;;
82479;SDS011;72105;46.112;12.902;2023-09-19T03:52:19;5.00;;;3.42;;
82479;SDS011;72105;46.112;12.902;2023-09-19T03:54:45;5.28;;;3.50;;
82479;SDS011;72105;46.112;12.902;2023-09-19T03:57:12;7.38;;;3.60;;
82479;SDS011;72105;46.112;12.902;2023-09-19T03:59:40;4.95;;;3.35;;
82479;SDS011;72105;46.112;12.902;2023-09-19T04:02:08;5.90;;;3.13;;
82479;SDS011;72105;46.112;12.902;2023-09-19T04:04:46;7.55;;;3.75;;
82479;SDS011;72105;46.112;12.902;2023-09-19T04:07:12;4.60;;;3.15;;
82479;SDS011;72105;46.112;12.902;2023-09-19T04:09:39;9.15;;;3.72;;
82479;SDS011;72105;46.112;12.902;2023-09-19T04:12:05;4.85;;;3.38;;
82479;SDS011;72105;46.112;12.902;2023-09-19T04:14:31;6.47;;;3.75;;
82479;SDS011;72105;46.112;12.902;2023-09-19T04:16:57;4.00;;;3.40;;
82479;SDS011;72105;46.112;12.902;2023-09-19T04:19:23;5.22;;;3.65;;
82479;SDS011;72105;46.112;12.902;2023-09-19T04:21:49;4.88;;;3.55;;
82479;SDS011;72105;46.112;12.902;2023-09-19T04:24:15;5.25;;;3.85;;
82479;SDS011;72105;46.112;12.902;2023-09-19T04:26:44;7.22;;;4.30;;
82479;SDS011;72105;46.112;12.902;2023-09-19T04:29:10;5.50;;;3.65;;
82479;SDS011;72105;46.112;12.902;2023-09-19T04:31:39;8.98;;;4.05;;
82479;SDS011;72105;46.112;12.902;2023-09-19T04:34:07;8.15;;;3.75;;
82479;SDS011;72105;46.112;12.902;2023-09-19T04:36:35;6.10;;;3.95;;
82479;SDS011;72105;46.112;12.902;2023-09-19T04:39:04;5.03;;;3.65;;
82479;SDS011;72105;46.112;12.902;2023-09-19T04:41:30;7.90;;;3.60;;
82479;SDS011;72105;46.112;12.902;2023-09-19T04:43:57;6.10;;;3.25;;
82479;SDS011;72105;46.112;12.902;2023-09-19T04:46:23;5.72;;;3.47;;
82479;SDS011;72105;46.112;12.902;2023-09-19T04:48:49;6.50;;;3.70;;
82479;SDS011;72105;46.112;12.902;2023-09-19T04:51:15;4.57;;;3.05;;
82479;SDS011;72105;46.112;12.902;2023-09-19T04:53:43;6.22;;;3.10;;
82479;SDS011;72105;46.112;12.902;2023-09-19T04:56:10;5.40;;;3.38;;
82479;SDS011;72105;46.112;12.902;2023-09-19T04:58:36;5.35;;;3.60;;
82479;SDS011;72105;46.112;12.902;2023-09-19T05:01:02;6.47;;;3.20;;
82479;SDS011;72105;46.112;12.902;2023-09-19T05:03:28;4.90;;;3.08;;
82479;SDS011;72105;46.112;12.902;2023-09-19T05:05:54;4.80;;;3.47;;
82479;SDS011;72105;46.112;12.902;2023-09-19T05:08:20;6.63;;;3.22;;
82479;SDS011;72105;46.112;12.902;2023-09-19T05:10:47;5.13;;;3.03;;
82479;SDS011;72105;46.112;12.902;2023-09-19T05:13:14;3.80;;;2.80;;
82479;SDS011;72105;46.112;12.902;2023-09-19T05:15:40;5.80;;;3.30;;
82479;SDS011;72105;46.112;12.902;2023-09-19T05:18:06;4.70;;;2.90;;
82479;SDS011;72105;46.112;12.902;2023-09-19T05:20:32;3.95;;;2.90;;
82479;SDS011;72105;46.112;12.902;2023-09-19T05:23:03;4.93;;;2.80;;
82479;SDS011;72105;46.112;12.902;2023-09-19T05:25:35;3.75;;;2.75;;
82479;SDS011;72105;46.112;12.902;2023-09-19T05:30:33;5.22;;;3.05;;
82479;SDS011;72105;46.112;12.902;2023-09-19T05:33:08;4.70;;;2.80;;
82479;SDS011;72105;46.112;12.902;2023-09-19T05:35:34;3.13;;;2.38;;
82479;SDS011;72105;46.112;12.902;2023-09-19T05:38:04;4.65;;;2.90;;
82479;SDS011;72105;46.112;12.902;2023-09-19T05:40:34;4.20;;;2.40;;
82479;SDS011;72105;46.112;12.902;2023-09-19T05:43:00;6.45;;;2.88;;
82479;SDS011;72105;46.112;12.902;2023-09-19T05:45:29;4.55;;;2.47;;
82479;SDS011;72105;46.112;12.902;2023-09-19T05:47:55;5.22;;;2.80;;
82479;SDS011;72105;46.112;12.902;2023-09-19T05:50:29;3.03;;;2.72;;
82479;SDS011;72105;46.112;12.902;2023-09-19T05:52:57;8.82;;;3.53;;
82479;SDS011;72105;46.112;12.902;2023-09-19T05:55:23;5.22;;;3.40;;
82479;SDS011;72105;46.112;12.902;2023-09-19T05:57:53;5.35;;;3.42;;
82479;SDS011;72105;46.112;12.902;2023-09-19T06:00:22;5.13;;;3.40;;
82479;SDS011;72105;46.112;12.902;2023-09-19T06:02:49;5.43;;;3.45;;
82479;SDS011;72105;46.112;12.902;2023-09-19T06:05:15;4.50;;;3.17;;
82479;SDS011;72105;46.112;12.902;2023-09-19T06:07:41;4.50;;;3.50;;
82479;SDS011;72105;46.112;12.902;2023-09-19T06:10:08;5.68;;;3.13;;
82479;SDS011;72105;46.112;12.902;2023-09-19T06:12:41;3.70;;;2.95;;
82479;SDS011;72105;46.112;12.902;2023-09-19T06:15:11;4.47;;;2.70;;
82479;SDS011;72105;46.112;12.902;2023-09-19T06:17:42;5.68;;;3.00;;
82479;SDS011;72105;46.112;12.902;2023-09-19T06:20:08;6.75;;;2.90;;
82479;SDS011;72105;46.112;12.902;2023-09-19T06:22:43;5.35;;;2.70;;
82479;SDS011;72105;46.112;12.902;2023-09-19T06:25:10;5.28;;;2.70;;
82479;SDS011;72105;46.112;12.902;2023-09-19T06:27:40;4.88;;;2.45;;
82479;SDS011;72105;46.112;12.902;2023-09-19T06:30:10;4.82;;;2.25;;
82479;SDS011;72105;46.112;12.902;2023-09-19T06:32:37;3.67;;;2.70;;
82479;SDS011;72105;46.112;12.902;2023-09-19T06:35:04;3.40;;;1.95;;
82479;SDS011;72105;46.112;12.902;2023-09-19T06:37:33;2.67;;;2.30;;
82479;SDS011;72105;46.112;12.902;2023-09-19T06:40:04;6.68;;;2.40;;
82479;SDS011;72105;46.112;12.902;2023-09-19T06:42:30;3.72;;;2.40;;
82479;SDS011;72105;46.112;12.902;2023-09-19T06:44:57;4.57;;;2.13;;
82479;SDS011;72105;46.112;12.902;2023-09-19T06:47:23;3.75;;;2.08;;
82479;SDS011;72105;46.112;12.902;2023-09-19T06:49:51;4.22;;;2.53;;
82479;SDS011;72105;46.112;12.902;2023-09-19T06:52:17;5.00;;;3.00;;
82479;SDS011;72105;46.112;12.902;2023-09-19T06:54:44;6.30;;;2.63;;
82479;SDS011;72105;46.112;12.902;2023-09-19T06:57:10;2.90;;;2.00;;
82479;SDS011;72105;46.112;12.902;2023-09-19T06:59:36;4.30;;;2.38;;
82479;SDS011;72105;46.112;12.902;2023-09-19T07:04:31;2.85;;;2.08;;
82479;SDS011;72105;46.112;12.902;2023-09-19T07:06:58;2.53;;;1.80;;
82479;SDS011;72105;46.112;12.902;2023-09-19T07:09:24;2.08;;;1.80;;
82479;SDS011;72105;46.112;12.902;2023-09-19T07:11:52;2.10;;;1.88;;
82479;SDS011;72105;46.112;12.902;2023-09-19T07:14:18;2.92;;;1.58;;
82479;SDS011;72105;46.112;12.902;2023-09-19T07:16:44;5.40;;;2.08;;
82479;SDS011;72105;46.112;12.902;2023-09-19T07:19:12;2.22;;;1.80;;
82479;SDS011;72105;46.112;12.902;2023-09-19T07:21:40;2.95;;;1.45;;
82479;SDS011;72105;46.112;12.902;2023-09-19T07:24:07;4.47;;;2.58;;
82479;SDS011;72105;46.112;12.902;2023-09-19T07:26:33;5.22;;;1.90;;
82479;SDS011;72105;46.112;12.902;2023-09-19T07:29:00;3.05;;;2.13;;
82479;SDS011;72105;46.112;12.902;2023-09-19T07:31:36;2.78;;;1.55;;
82479;SDS011;72105;46.112;12.902;2023-09-19T07:34:02;5.00;;;1.42;;
82479;SDS011;72105;46.112;12.902;2023-09-19T07:36:28;3.03;;;1.55;;
82479;SDS011;72105;46.112;12.902;2023-09-19T07:38:55;2.95;;;1.50;;
82479;SDS011;72105;46.112;12.902;2023-09-19T07:41:23;3.63;;;1.33;;
82479;SDS011;72105;46.112;12.902;2023-09-19T07:43:49;2.30;;;1.45;;
82479;SDS011;72105;46.112;12.902;2023-09-19T07:46:15;3.08;;;1.35;;
82479;SDS011;72105;46.112;12.902;2023-09-19T07:48:41;2.55;;;1.20;;
82479;SDS011;72105;46.112;12.902;2023-09-19T07:51:13;3.03;;;1.60;;
82479;SDS011;72105;46.112;12.902;2023-09-19T07:53:41;3.80;;;1.30;;
82479;SDS011;72105;46.112;12.902;2023-09-19T07:56:08;3.63;;;1.30;;
82479;SDS011;72105;46.112;12.902;2023-09-19T07:58:35;1.40;;;1.10;;
82479;SDS011;72105;46.112;12.902;2023-09-19T08:01:05;4.82;;;1.67;;
82479;SDS011;72105;46.112;12.902;2023-09-19T08:03:32;2.78;;;1.27;;
82479;SDS011;72105;46.112;12.902;2023-09-19T08:05:59;1.88;;;1.27;;
82479;SDS011;72105;46.112;12.902;2023-09-19T08:08:26;1.60;;;1.30;;
82479;SDS011;72105;46.112;12.902;2023-09-19T08:10:56;4.80;;;1.58;;
82479;SDS011;72105;46.112;12.902;2023-09-19T08:13:23;2.15;;;1.13;;
82479;SDS011;72105;46.112;12.902;2023-09-19T08:15:49;4.38;;;2.30;;
82479;SDS011;72105;46.112;12.902;2023-09-19T08:18:16;4.43;;;1.40;;
82479;SDS011;72105;46.112;12.902;2023-09-19T08:20:42;1.38;;;1.17;;
82479;SDS011;72105;46.112;12.902;2023-09-19T08:23:11;2.50;;;1.58;;
82479;SDS011;72105;46.112;12.902;2023-09-19T08:25:37;3.30;;;1.45;;
82479;SDS011;72105;46.112;12.902;2023-09-19T08:28:05;5.60;;;1.60;;
82479;SDS011;72105;46.112;12.902;2023-09-19T08:30:33;4.70;;;1.63;;
82479;SDS011;72105;46.112;12.902;2023-09-19T08:33:00;2.15;;;1.50;;
82479;SDS011;72105;46.112;12.902;2023-09-19T08:35:29;2.95;;;1.60;;
82479;SDS011;72105;46.112;12.902;2023-09-19T08:37:56;4.68;;;1.80;;
82479;SDS011;72105;46.112;12.902;2023-09-19T08:40:22;3.10;;;1.38;;
82479;SDS011;72105;46.112;12.902;2023-09-19T08:45:15;3.38;;;1.50;;
82479;SDS011;72105;46.112;12.902;2023-09-19T08:47:53;8.65;;;2.78;;
82479;SDS011;72105;46.112;12.902;2023-09-19T08:50:25;6.70;;;2.22;;
82479;SDS011;72105;46.112;12.902;2023-09-19T08:52:52;7.10;;;2.10;;
82479;SDS011;72105;46.112;12.902;2023-09-19T08:55:19;5.90;;;2.40;;
82479;SDS011;72105;46.112;12.902;2023-09-19T08:57:49;4.93;;;2.25;;
82479;SDS011;72105;46.112;12.902;2023-09-19T09:00:16;8.57;;;2.80;;
82479;SDS011;72105;46.112;12.902;2023-09-19T09:02:47;13.00;;;3.50;;
82479;SDS011;72105;46.112;12.902;2023-09-19T09:05:15;6.38;;;2.30;;
82479;SDS011;72105;46.112;12.902;2023-09-19T09:07:47;8.95;;;3.22;;
82479;SDS011;72105;46.112;12.902;2023-09-19T09:10:15;9.48;;;3.70;;
82479;SDS011;72105;46.112;12.902;2023-09-19T09:12:42;6.30;;;2.63;;
82479;SDS011;72105;46.112;12.902;2023-09-19T09:15:09;7.97;;;2.58;;
82479;SDS011;72105;46.112;12.902;2023-09-19T09:17:37;9.68;;;2.75;;
82479;SDS011;72105;46.112;12.902;2023-09-19T09:20:04;9.40;;;2.92;;
82479;SDS011;72105;46.112;12.902;2023-09-19T09:22:33;9.32;;;3.22;;
82479;SDS011;72105;46.112;12.902;2023-09-19T09:25:00;10.35;;;3.47;;
82479;SDS011;72105;46.112;12.902;2023-09-19T09:27:29;6.13;;;3.00;;
82479;SDS011;72105;46.112;12.902;2023-09-19T09:29:57;11.13;;;3.83;;
82479;SDS011;72105;46.112;12.902;2023-09-19T09:32:27;10.77;;;4.25;;
82479;SDS011;72105;46.112;12.902;2023-09-19T09:37:20;9.25;;;3.80;;
82479;SDS011;72105;46.112;12.902;2023-09-19T09:39:57;13.35;;;3.45;;
82479;SDS011;72105;46.112;12.902;2023-09-19T09:42:37;8.40;;;3.15;;
82479;SDS011;72105;46.112;12.902;2023-09-19T09:45:16;7.53;;;3.55;;
82479;SDS011;72105;46.112;12.902;2023-09-19T09:47:47;5.15;;;2.95;;
82479;SDS011;72105;46.112;12.902;2023-09-19T09:50:26;5.47;;;3.17;;
82479;SDS011;72105;46.112;12.902;2023-09-19T09:52:57;11.70;;;3.38;;
82479;SDS011;72105;46.112;12.902;2023-09-19T09:55:36;8.98;;;3.60;;
82479;SDS011;72105;46.112;12.902;2023-09-19T09:58:17;8.18;;;4.32;;
82479;SDS011;72105;46.112;12.902;2023-09-19T10:00:53;10.75;;;3.80;;
82479;SDS011;72105;46.112;12.902;2023-09-19T10:03:24;12.85;;;3.78;;
82479;SDS011;72105;46.112;12.902;2023-09-19T10:05:57;12.77;;;4.65;;
82479;SDS011;72105;46.112;12.902;2023-09-19T10:08:23;11.18;;;3.17;;
82479;SDS011;72105;46.112;12.902;2023-09-19T10:10:56;10.18;;;3.50;;
82479;SDS011;72105;46.112;12.902;2023-09-19T10:13:30;8.50;;;4.00;;
82479;SDS011;72105;46.112;12.902;2023-09-19T10:15:58;10.75;;;4.10;;
82479;SDS011;72105;46.112;12.902;2023-09-19T10:18:26;11.02;;;3.40;;
82479;SDS011;72105;46.112;12.902;2023-09-19T10:20:58;7.78;;;3.30;;
82479;SDS011;72105;46.112;12.902;2023-09-19T10:23:26;8.57;;;3.55;;
82479;SDS011;72105;46.112;12.902;2023-09-19T10:25:55;7.55;;;3.55;;
82479;SDS011;72105;46.112;12.902;2023-09-19T10:28:23;9.00;;;4.00;;
82479;SDS011;72105;46.112;12.902;2023-09-19T10:30:54;6.80;;;3.13;;
82479;SDS011;72105;46.112;12.902;2023-09-19T10:33:23;10.50;;;4.38;;
82479;SDS011;72105;46.112;12.902;2023-09-19T10:35:52;9.80;;;3.90;;
82479;SDS011;72105;46.112;12.902;2023-09-19T10:38:24;7.82;;;2.83;;
82479;SDS011;72105;46.112;12.902;2023-09-19T10:40:51;8.75;;;3.17;;
82479;SDS011;72105;46.112;12.902;2023-09-19T10:43:18;7.50;;;3.10;;
82479;SDS011;72105;46.112;12.902;2023-09-19T10:45:46;8.02;;;3.70;;
82479;SDS011;72105;46.112;12.902;2023-09-19T10:48:15;4.40;;;2.38;;
82479;SDS011;72105;46.112;12.902;2023-09-19T10:50:48;5.53;;;2.47;;
82479;SDS011;72105;46.112;12.902;2023-09-19T10:53:16;6.30;;;2.20;;
82479;SDS011;72105;46.112;12.902;2023-09-19T10:55:53;5.70;;;2.60;;
82479;SDS011;72105;46.112;12.902;2023-09-19T10:58:29;5.47;;;2.65;;
82479;SDS011;72105;46.112;12.902;2023-09-19T11:00:56;6.72;;;2.63;;
82479;SDS011;72105;46.112;12.902;2023-09-19T11:03:30;5.55;;;3.10;;
82479;SDS011;72105;46.112;12.902;2023-09-19T11:08:29;8.77;;;3.30;;
82479;SDS011;72105;46.112;12.902;2023-09-19T11:10:57;7.70;;;2.97;;
82479;SDS011;72105;46.112;12.902;2023-09-19T11:26:47;6.22;;;2.90;;
82479;SDS011;72105;46.112;12.902;2023-09-19T11:29:26;8.70;;;2.92;;
82479;SDS011;72105;46.112;12.902;2023-09-19T11:31:53;8.32;;;3.42;;
82479;SDS011;72105;46.112;12.902;2023-09-19T11:37:02;6.07;;;2.80;;
82479;SDS011;72105;46.112;12.902;2023-09-19T11:39:30;7.05;;;2.60;;
82479;SDS011;72105;46.112;12.902;2023-09-19T11:41:56;7.85;;;3.22;;
82479;SDS011;72105;46.112;12.902;2023-09-19T11:49:18;6.47;;;2.13;;
82479;SDS011;72105;46.112;12.902;2023-09-19T11:51:48;8.27;;;2.55;;
82479;SDS011;72105;46.112;12.902;2023-09-19T11:54:17;5.60;;;2.13;;
82479;SDS011;72105;46.112;12.902;2023-09-19T11:56:53;4.22;;;2.08;;
82479;SDS011;72105;46.112;12.902;2023-09-19T11:59:23;5.53;;;2.67;;
82479;SDS011;72105;46.112;12.902;2023-09-19T12:01:53;7.60;;;2.05;;
82479;SDS011;72105;46.112;12.902;2023-09-19T12:04:35;5.45;;;2.00;;
82479;SDS011;72105;46.112;12.902;2023-09-19T12:07:03;5.68;;;2.10;;
82479;SDS011;72105;46.112;12.902;2023-09-19T12:09:29;9.32;;;2.40;;
82479;SDS011;72105;46.112;12.902;2023-09-19T12:11:55;5.35;;;2.15;;
82479;SDS011;72105;46.112;12.902;2023-09-19T12:16:56;7.20;;;2.55;;
82479;SDS011;72105;46.112;12.902;2023-09-19T12:19:23;3.85;;;1.50;;
82479;SDS011;72105;46.112;12.902;2023-09-19T12:22:00;4.80;;;1.67;;
82479;SDS011;72105;46.112;12.902;2023-09-19T12:27:04;4.95;;;1.55;;
82479;SDS011;72105;46.112;12.902;2023-09-19T12:29:31;3.63;;;1.88;;
82479;SDS011;72105;46.112;12.902;2023-09-19T12:31:59;4.15;;;1.70;;
82479;SDS011;72105;46.112;12.902;2023-09-19T12:34:29;2.67;;;1.42;;
82479;SDS011;72105;46.112;12.902;2023-09-19T12:37:06;4.13;;;1.40;;
82479;SDS011;72105;46.112;12.902;2023-09-19T12:39:47;3.75;;;1.58;;
82479;SDS011;72105;46.112;12.902;2023-09-19T12:42:21;3.50;;;1.15;;
82479;SDS011;72105;46.112;12.902;2023-09-19T12:44:48;5.40;;;1.27;;
82479;SDS011;72105;46.112;12.902;2023-09-19T12:47:20;4.97;;;1.33;;
82479;SDS011;72105;46.112;12.902;2023-09-19T12:52:42;2.45;;;1.15;;
82479;SDS011;72105;46.112;12.902;2023-09-19T12:55:20;4.30;;;1.58;;
82479;SDS011;72105;46.112;12.902;2023-09-19T13:00:37;3.45;;;1.65;;
82479;SDS011;72105;46.112;12.902;2023-09-19T13:05:52;1.85;;;1.10;;
82479;SDS011;72105;46.112;12.902;2023-09-19T13:13:35;4.22;;;1.30;;
82479;SDS011;72105;46.112;12.902;2023-09-19T13:16:02;4.13;;;1.25;;
82479;SDS011;72105;46.112;12.902;2023-09-19T13:18:40;1.75;;;0.80;;
82479;SDS011;72105;46.112;12.902;2023-09-19T13:21:08;2.40;;;0.88;;
82479;SDS011;72105;46.112;12.902;2023-09-19T13:23:37;2.47;;;0.98;;
82479;SDS011;72105;46.112;12.902;2023-09-19T13:26:03;2.05;;;1.05;;
82479;SDS011;72105;46.112;12.902;2023-09-19T13:28:31;1.92;;;1.13;;
82479;SDS011;72105;46.112;12.902;2023-09-19T13:30:57;1.83;;;0.93;;
82479;SDS011;72105;46.112;12.902;2023-09-19T13:33:23;2.33;;;0.93;;
82479;SDS011;72105;46.112;12.902;2023-09-19T13:35:51;2.55;;;1.23;;
82479;SDS011;72105;46.112;12.902;2023-09-19T13:38:18;3.03;;;1.70;;
82479;SDS011;72105;46.112;12.902;2023-09-19T13:40:47;2.67;;;1.02;;
82479;SDS011;72105;46.112;12.902;2023-09-19T13:43:17;2.30;;;1.02;;
82479;SDS011;72105;46.112;12.902;2023-09-19T13:45:44;2.25;;;1.27;;
82479;SDS011;72105;46.112;12.902;2023-09-19T13:48:10;1.00;;;0.80;;
82479;SDS011;72105;46.112;12.902;2023-09-19T13:50:36;2.05;;;0.90;;
82479;SDS011;72105;46.112;12.902;2023-09-19T13:53:07;3.13;;;1.10;;
82479;SDS011;72105;46.112;12.902;2023-09-19T13:55:34;2.05;;;1.08;;
82479;SDS011;72105;46.112;12.902;2023-09-19T13:58:00;1.20;;;1.00;;
82479;SDS011;72105;46.112;12.902;2023-09-19T14:00:27;4.07;;;1.08;;
82479;SDS011;72105;46.112;12.902;2023-09-19T14:02:53;1.88;;;1.17;;
82479;SDS011;72105;46.112;12.902;2023-09-19T14:05:19;2.78;;;1.08;;
82479;SDS011;72105;46.112;12.902;2023-09-19T14:07:45;2.75;;;1.35;;
82479;SDS011;72105;46.112;12.902;2023-09-19T14:10:12;4.85;;;1.20;;
82479;SDS011;72105;46.112;12.902;2023-09-19T14:12:38;2.75;;;1.20;;
82479;SDS011;72105;46.112;12.902;2023-09-19T14:15:07;3.17;;;1.10;;
82479;SDS011;72105;46.112;12.902;2023-09-19T14:17:34;3.28;;;1.30;;
82479;SDS011;72105;46.112;12.902;2023-09-19T14:20:00;1.77;;;0.88;;
82479;SDS011;72105;46.112;12.902;2023-09-19T14:22:26;3.17;;;1.00;;
82479;SDS011;72105;46.112;12.902;2023-09-19T14:24:52;2.75;;;1.10;;
82479;SDS011;72105;46.112;12.902;2023-09-19T14:27:18;1.98;;;1.17;;
82479;SDS011;72105;46.112;12.902;2023-09-19T14:29:44;5.03;;;1.27;;
82479;SDS011;72105;46.112;12.902;2023-09-19T14:32:11;2.17;;;0.93;;
82479;SDS011;72105;46.112;12.902;2023-09-19T14:34:37;3.83;;;1.40;;
82479;SDS011;72105;46.112;12.902;2023-09-19T14:37:07;3.17;;;1.20;;
82479;SDS011;72105;46.112;12.902;2023-09-19T14:39:33;1.75;;;1.00;;
82479;SDS011;72105;46.112;12.902;2023-09-19T14:41:59;2.92;;;1.10;;
82479;SDS011;72105;46.112;12.902;2023-09-19T14:44:25;5.43;;;1.27;;
82479;SDS011;72105;46.112;12.902;2023-09-19T14:46:53;3.78;;;1.00;;
82479;SDS011;72105;46.112;12.902;2023-09-19T14:49:20;5.00;;;1.30;;
82479;SDS011;72105;46.112;12.902;2023-09-19T14:51:46;4.72;;;1.30;;
82479;SDS011;72105;46.112;12.902;2023-09-19T14:54:17;4.35;;;1.30;;
82479;SDS011;72105;46.112;12.902;2023-09-19T14:56:44;3.17;;;1.20;;
82479;SDS011;72105;46.112;12.902;2023-09-19T14:59:10;2.22;;;1.10;;
82479;SDS011;72105;46.112;12.902;2023-09-19T15:01:36;3.00;;;1.20;;
82479;SDS011;72105;46.112;12.902;2023-09-19T15:04:04;2.22;;;1.13;;
82479;SDS011;72105;46.112;12.902;2023-09-19T15:06:30;3.38;;;1.50;;
82479;SDS011;72105;46.112;12.902;2023-09-19T15:08:56;2.97;;;1.30;;
82479;SDS011;72105;46.112;12.902;2023-09-19T15:18:41;2.65;;;1.13;;
82479;SDS011;72105;46.112;12.902;2023-09-19T15:21:08;1.92;;;1.00;;
82479;SDS011;72105;46.112;12.902;2023-09-19T15:23:35;3.97;;;1.25;;
82479;SDS011;72105;46.112;12.902;2023-09-19T15:26:09;2.95;;;1.17;;
82479;SDS011;72105;46.112;12.902;2023-09-19T15:28:39;2.75;;;1.08;;
82479;SDS011;72105;46.112;12.902;2023-09-19T15:31:06;3.90;;;1.55;;
82479;SDS011;72105;46.112;12.902;2023-09-19T15:33:33;4.18;;;1.50;;
82479;SDS011;72105;46.112;12.902;2023-09-19T15:38:32;2.45;;;1.17;;
82479;SDS011;72105;46.112;12.902;2023-09-19T15:41:18;2.85;;;1.20;;
82479;SDS011;72105;46.112;12.902;2023-09-19T15:43:45;4.88;;;1.10;;
82479;SDS011;72105;46.112;12.902;2023-09-19T15:46:11;1.65;;;1.10;;
82479;SDS011;72105;46.112;12.902;2023-09-19T15:48:38;3.72;;;1.00;;
82479;SDS011;72105;46.112;12.902;2023-09-19T15:51:04;2.03;;;1.20;;
82479;SDS011;72105;46.112;12.902;2023-09-19T15:53:46;1.90;;;1.10;;
82479;SDS011;72105;46.112;12.902;2023-09-19T15:56:14;4.03;;;1.60;;
82479;SDS011;72105;46.112;12.902;2023-09-19T15:58:43;2.63;;;1.08;;
82479;SDS011;72105;46.112;12.902;2023-09-19T16:01:09;3.47;;;1.33;;
82479;SDS011;72105;46.112;12.902;2023-09-19T16:03:39;2.90;;;1.10;;